sensor_id;sensor_type;location;lat;lon;timestamp;temperature;humidity
44117;DHT22;29781;49.480;8.512;2022-07-23T00:01:15;25.80;99.40
44117;DHT22;29781;49.480;8.512;2022-07-23T00:03:41;25.80;99.50
44117;DHT22;29781;49.480;8.512;2022-07-23T00:06:07;25.80;99.80
44117;DHT22;29781;49.480;8.512;2022-07-23T00:08:32;25.80;99.90
44117;DHT22;29781;49.480;8.512;2022-07-23T00:10:58;25.80;99.40
44117;DHT22;29781;49.480;8.512;2022-07-23T00:13:24;25.80;99.30
44117;DHT22;29781;49.480;8.512;2022-07-23T00:15:49;25.90;99.20
44117;DHT22;29781;49.480;8.512;2022-07-23T00:18:15;25.90;99.20
44117;DHT22;29781;49.480;8.512;2022-07-23T00:20:41;26.00;99.20
44117;DHT22;29781;49.480;8.512;2022-07-23T00:23:06;25.60;99.50
44117;DHT22;29781;49.480;8.512;2022-07-23T00:25:32;25.60;99.50
44117;DHT22;29781;49.480;8.512;2022-07-23T00:27:59;25.60;99.60
44117;DHT22;29781;49.480;8.512;2022-07-23T00:30:25;25.60;99.60
44117;DHT22;29781;49.480;8.512;2022-07-23T00:32:53;25.50;99.90
44117;DHT22;29781;49.480;8.512;2022-07-23T00:35:20;25.40;99.90
44117;DHT22;29781;49.480;8.512;2022-07-23T00:37:47;25.30;99.90
44117;DHT22;29781;49.480;8.512;2022-07-23T00:40:13;25.30;99.90
44117;DHT22;29781;49.480;8.512;2022-07-23T00:42:39;25.30;99.90
44117;DHT22;29781;49.480;8.512;2022-07-23T00:45:06;25.30;99.90
44117;DHT22;29781;49.480;8.512;2022-07-23T00:47:32;25.20;99.90
44117;DHT22;29781;49.480;8.512;2022-07-23T00:49:58;25.20;99.90
44117;DHT22;29781;49.480;8.512;2022-07-23T00:52:23;25.30;99.90
44117;DHT22;29781;49.480;8.512;2022-07-23T00:54:49;25.30;99.90
44117;DHT22;29781;49.480;8.512;2022-07-23T00:57:16;25.30;99.90
44117;DHT22;29781;49.480;8.512;2022-07-23T00:59:42;25.40;99.90
44117;DHT22;29781;49.480;8.512;2022-07-23T01:02:07;25.40;99.90
44117;DHT22;29781;49.480;8.512;2022-07-23T01:04:33;25.00;99.90
44117;DHT22;29781;49.480;8.512;2022-07-23T01:07:00;24.90;99.90
44117;DHT22;29781;49.480;8.512;2022-07-23T01:09:26;25.00;99.90
44117;DHT22;29781;49.480;8.512;2022-07-23T01:11:54;24.90;99.90
44117;DHT22;29781;49.480;8.512;2022-07-23T01:14:20;25.00;99.90
44117;DHT22;29781;49.480;8.512;2022-07-23T01:16:47;25.10;99.90
44117;DHT22;29781;49.480;8.512;2022-07-23T01:19:14;25.10;99.90
44117;DHT22;29781;49.480;8.512;2022-07-23T01:21:47;25.10;99.90
44117;DHT22;29781;49.480;8.512;2022-07-23T01:24:13;25.10;99.90
44117;DHT22;29781;49.480;8.512;2022-07-23T01:26:42;25.10;99.90
44117;DHT22;29781;49.480;8.512;2022-07-23T01:29:08;25.10;99.90
44117;DHT22;29781;49.480;8.512;2022-07-23T01:31:34;25.10;99.90
44117;DHT22;29781;49.480;8.512;2022-07-23T01:33:59;24.80;99.90
44117;DHT22;29781;49.480;8.512;2022-07-23T01:36:25;24.70;99.90
44117;DHT22;29781;49.480;8.512;2022-07-23T01:38:51;24.70;99.90
44117;DHT22;29781;49.480;8.512;2022-07-23T01:41:17;24.80;99.90
44117;DHT22;29781;49.480;8.512;2022-07-23T01:43:43;24.80;99.90
44117;DHT22;29781;49.480;8.512;2022-07-23T01:46:08;24.50;99.90
44117;DHT22;29781;49.480;8.512;2022-07-23T01:48:35;24.40;99.90
44117;DHT22;29781;49.480;8.512;2022-07-23T01:51:00;24.40;99.90
44117;DHT22;29781;49.480;8.512;2022-07-23T01:53:26;24.10;99.90
44117;DHT22;29781;49.480;8.512;2022-07-23T01:55:52;24.00;99.90
44117;DHT22;29781;49.480;8.512;2022-07-23T01:58:17;24.10;99.90
44117;DHT22;29781;49.480;8.512;2022-07-23T02:00:43;24.30;99.90
44117;DHT22;29781;49.480;8.512;2022-07-23T02:03:08;24.40;99.90
44117;DHT22;29781;49.480;8.512;2022-07-23T02:05:34;24.50;99.90
44117;DHT22;29781;49.480;8.512;2022-07-23T02:08:00;24.20;99.90
44117;DHT22;29781;49.480;8.512;2022-07-23T02:10:27;24.10;99.90
44117;DHT22;29781;49.480;8.512;2022-07-23T02:12:52;24.20;99.90
44117;DHT22;29781;49.480;8.512;2022-07-23T02:15:18;24.30;99.90
44117;DHT22;29781;49.480;8.512;2022-07-23T02:17:44;24.20;99.90
44117;DHT22;29781;49.480;8.512;2022-07-23T02:20:10;24.20;99.90
44117;DHT22;29781;49.480;8.512;2022-07-23T02:22:37;24.30;99.90
44117;DHT22;29781;49.480;8.512;2022-07-23T02:25:07;24.00;99.90
44117;DHT22;29781;49.480;8.512;2022-07-23T02:27:34;23.60;99.90
44117;DHT22;29781;49.480;8.512;2022-07-23T02:30:00;23.00;99.90
44117;DHT22;29781;49.480;8.512;2022-07-23T02:32:26;22.90;99.90
44117;DHT22;29781;49.480;8.512;2022-07-23T02:34:52;22.80;99.90
44117;DHT22;29781;49.480;8.512;2022-07-23T02:37:17;23.00;99.90
44117;DHT22;29781;49.480;8.512;2022-07-23T02:39:44;23.20;99.90
44117;DHT22;29781;49.480;8.512;2022-07-23T02:42:09;23.40;99.90
44117;DHT22;29781;49.480;8.512;2022-07-23T02:44:35;23.40;99.90
44117;DHT22;29781;49.480;8.512;2022-07-23T02:47:01;23.20;99.90
44117;DHT22;29781;49.480;8.512;2022-07-23T02:49:27;22.90;99.90
44117;DHT22;29781;49.480;8.512;2022-07-23T02:51:52;22.50;99.90
44117;DHT22;29781;49.480;8.512;2022-07-23T02:54:18;22.60;99.90
44117;DHT22;29781;49.480;8.512;2022-07-23T02:56:44;22.50;99.90
44117;DHT22;29781;49.480;8.512;2022-07-23T02:59:10;22.40;99.90
44117;DHT22;29781;49.480;8.512;2022-07-23T03:01:36;22.20;99.90
44117;DHT22;29781;49.480;8.512;2022-07-23T03:04:02;22.10;99.90
44117;DHT22;29781;49.480;8.512;2022-07-23T03:06:28;22.10;99.90
44117;DHT22;29781;49.480;8.512;2022-07-23T03:08:53;22.30;99.90
44117;DHT22;29781;49.480;8.512;2022-07-23T03:11:19;22.60;99.90
44117;DHT22;29781;49.480;8.512;2022-07-23T03:13:45;22.80;99.90
44117;DHT22;29781;49.480;8.512;2022-07-23T03:16:11;23.00;99.90
44117;DHT22;29781;49.480;8.512;2022-07-23T03:18:37;23.20;99.90
44117;DHT22;29781;49.480;8.512;2022-07-23T03:21:02;23.20;99.90
44117;DHT22;29781;49.480;8.512;2022-07-23T03:23:28;23.20;99.90
44117;DHT22;29781;49.480;8.512;2022-07-23T03:25:54;23.20;99.90
44117;DHT22;29781;49.480;8.512;2022-07-23T03:28:19;23.30;99.90
44117;DHT22;29781;49.480;8.512;2022-07-23T03:30:46;23.40;99.90
44117;DHT22;29781;49.480;8.512;2022-07-23T03:33:20;23.40;99.90
44117;DHT22;29781;49.480;8.512;2022-07-23T03:35:47;23.50;99.90
44117;DHT22;29781;49.480;8.512;2022-07-23T03:38:13;23.40;99.90
44117;DHT22;29781;49.480;8.512;2022-07-23T03:40:39;23.50;99.90
44117;DHT22;29781;49.480;8.512;2022-07-23T03:43:05;23.60;99.90
44117;DHT22;29781;49.480;8.512;2022-07-23T03:45:31;23.50;99.90
44117;DHT22;29781;49.480;8.512;2022-07-23T03:47:57;23.50;99.90
44117;DHT22;29781;49.480;8.512;2022-07-23T03:50:24;23.20;99.90
44117;DHT22;29781;49.480;8.512;2022-07-23T03:52:49;22.70;99.90
44117;DHT22;29781;49.480;8.512;2022-07-23T03:55:15;22.40;99.90
44117;DHT22;29781;49.480;8.512;2022-07-23T03:57:41;22.00;99.90
44117;DHT22;29781;49.480;8.512;2022-07-23T04:00:08;21.90;99.90
44117;DHT22;29781;49.480;8.512;2022-07-23T04:02:38;22.00;99.90
44117;DHT22;29781;49.480;8.512;2022-07-23T04:05:04;22.30;99.90
44117;DHT22;29781;49.480;8.512;2022-07-23T04:07:30;22.60;99.90
44117;DHT22;29781;49.480;8.512;2022-07-23T04:09:56;22.50;99.90
44117;DHT22;29781;49.480;8.512;2022-07-23T04:12:22;22.00;99.90
44117;DHT22;29781;49.480;8.512;2022-07-23T04:14:48;21.90;99.90
44117;DHT22;29781;49.480;8.512;2022-07-23T04:17:14;22.10;99.90
44117;DHT22;29781;49.480;8.512;2022-07-23T04:19:40;22.20;99.90
44117;DHT22;29781;49.480;8.512;2022-07-23T04:22:10;22.30;99.90
44117;DHT22;29781;49.480;8.512;2022-07-23T04:24:36;22.40;99.90
44117;DHT22;29781;49.480;8.512;2022-07-23T04:27:03;22.40;99.90
44117;DHT22;29781;49.480;8.512;2022-07-23T04:29:28;22.60;99.90
44117;DHT22;29781;49.480;8.512;2022-07-23T04:31:54;22.70;99.90
44117;DHT22;29781;49.480;8.512;2022-07-23T04:34:20;22.80;99.90
44117;DHT22;29781;49.480;8.512;2022-07-23T04:36:46;22.80;99.90
44117;DHT22;29781;49.480;8.512;2022-07-23T04:39:11;22.90;99.90
44117;DHT22;29781;49.480;8.512;2022-07-23T04:41:37;22.80;99.90
44117;DHT22;29781;49.480;8.512;2022-07-23T04:44:03;22.90;99.90
44117;DHT22;29781;49.480;8.512;2022-07-23T04:46:29;22.70;99.90
44117;DHT22;29781;49.480;8.512;2022-07-23T04:48:54;22.50;99.90
44117;DHT22;29781;49.480;8.512;2022-07-23T04:51:20;22.70;99.90
44117;DHT22;29781;49.480;8.512;2022-07-23T04:53:46;22.60;99.90
44117;DHT22;29781;49.480;8.512;2022-07-23T04:56:11;22.40;99.90
44117;DHT22;29781;49.480;8.512;2022-07-23T04:58:37;22.40;99.90
44117;DHT22;29781;49.480;8.512;2022-07-23T05:01:03;22.40;99.90
44117;DHT22;29781;49.480;8.512;2022-07-23T05:03:28;22.30;99.90
44117;DHT22;29781;49.480;8.512;2022-07-23T05:05:54;22.20;99.90
44117;DHT22;29781;49.480;8.512;2022-07-23T05:08:20;22.30;99.90
44117;DHT22;29781;49.480;8.512;2022-07-23T05:10:46;22.20;99.90
44117;DHT22;29781;49.480;8.512;2022-07-23T05:13:11;22.30;99.90
44117;DHT22;29781;49.480;8.512;2022-07-23T05:15:39;21.70;99.90
44117;DHT22;29781;49.480;8.512;2022-07-23T05:18:05;21.00;99.90
44117;DHT22;29781;49.480;8.512;2022-07-23T05:20:30;20.70;99.90
44117;DHT22;29781;49.480;8.512;2022-07-23T05:22:56;20.80;99.90
44117;DHT22;29781;49.480;8.512;2022-07-23T05:25:22;21.00;99.90
44117;DHT22;29781;49.480;8.512;2022-07-23T05:27:47;20.90;99.90
44117;DHT22;29781;49.480;8.512;2022-07-23T05:30:13;20.60;99.90
44117;DHT22;29781;49.480;8.512;2022-07-23T05:32:39;20.40;99.90
44117;DHT22;29781;49.480;8.512;2022-07-23T05:35:06;20.20;99.90
44117;DHT22;29781;49.480;8.512;2022-07-23T05:37:32;19.90;99.90
44117;DHT22;29781;49.480;8.512;2022-07-23T05:40:02;19.70;99.90
44117;DHT22;29781;49.480;8.512;2022-07-23T05:42:28;19.70;99.90
44117;DHT22;29781;49.480;8.512;2022-07-23T05:44:54;19.90;99.90
44117;DHT22;29781;49.480;8.512;2022-07-23T05:47:20;19.70;99.90
44117;DHT22;29781;49.480;8.512;2022-07-23T05:49:45;19.60;99.90
44117;DHT22;29781;49.480;8.512;2022-07-23T05:52:11;19.60;99.90
44117;DHT22;29781;49.480;8.512;2022-07-23T05:54:36;19.80;99.90
44117;DHT22;29781;49.480;8.512;2022-07-23T05:57:03;20.20;99.90
44117;DHT22;29781;49.480;8.512;2022-07-23T05:59:29;20.30;99.90
44117;DHT22;29781;49.480;8.512;2022-07-23T06:01:55;20.40;99.90
44117;DHT22;29781;49.480;8.512;2022-07-23T06:04:20;20.50;99.90
44117;DHT22;29781;49.480;8.512;2022-07-23T06:06:46;20.70;99.90
44117;DHT22;29781;49.480;8.512;2022-07-23T06:09:12;20.70;99.90
44117;DHT22;29781;49.480;8.512;2022-07-23T06:11:39;20.80;99.90
44117;DHT22;29781;49.480;8.512;2022-07-23T06:14:05;21.00;99.90
44117;DHT22;29781;49.480;8.512;2022-07-23T06:16:31;21.20;99.90
44117;DHT22;29781;49.480;8.512;2022-07-23T06:18:56;21.40;99.90
44117;DHT22;29781;49.480;8.512;2022-07-23T06:21:23;21.80;99.90
44117;DHT22;29781;49.480;8.512;2022-07-23T06:23:48;21.70;99.90
44117;DHT22;29781;49.480;8.512;2022-07-23T06:26:14;21.50;99.90
44117;DHT22;29781;49.480;8.512;2022-07-23T06:28:40;21.40;99.90
44117;DHT22;29781;49.480;8.512;2022-07-23T06:31:05;21.40;99.90
44117;DHT22;29781;49.480;8.512;2022-07-23T06:33:31;21.30;99.90
44117;DHT22;29781;49.480;8.512;2022-07-23T06:35:57;21.40;99.90
44117;DHT22;29781;49.480;8.512;2022-07-23T06:38:22;21.60;99.90
44117;DHT22;29781;49.480;8.512;2022-07-23T06:40:48;21.60;99.90
44117;DHT22;29781;49.480;8.512;2022-07-23T06:43:14;21.80;99.90
44117;DHT22;29781;49.480;8.512;2022-07-23T06:45:39;21.90;99.90
44117;DHT22;29781;49.480;8.512;2022-07-23T06:48:05;21.90;99.90
44117;DHT22;29781;49.480;8.512;2022-07-23T06:50:31;21.80;99.90
44117;DHT22;29781;49.480;8.512;2022-07-23T06:52:57;21.80;99.90
44117;DHT22;29781;49.480;8.512;2022-07-23T06:55:22;21.70;99.90
44117;DHT22;29781;49.480;8.512;2022-07-23T06:57:48;21.40;99.90
44117;DHT22;29781;49.480;8.512;2022-07-23T07:00:14;21.10;99.90
44117;DHT22;29781;49.480;8.512;2022-07-23T07:02:39;20.70;99.90
44117;DHT22;29781;49.480;8.512;2022-07-23T07:05:05;20.50;99.90
44117;DHT22;29781;49.480;8.512;2022-07-23T07:07:31;20.40;99.90
44117;DHT22;29781;49.480;8.512;2022-07-23T07:09:56;20.30;99.90
44117;DHT22;29781;49.480;8.512;2022-07-23T07:12:22;20.10;99.90
44117;DHT22;29781;49.480;8.512;2022-07-23T07:14:48;20.20;99.90
44117;DHT22;29781;49.480;8.512;2022-07-23T07:17:13;20.50;99.90
44117;DHT22;29781;49.480;8.512;2022-07-23T07:19:40;20.50;99.90
44117;DHT22;29781;49.480;8.512;2022-07-23T07:22:06;20.60;99.90
44117;DHT22;29781;49.480;8.512;2022-07-23T07:24:32;20.60;99.90
44117;DHT22;29781;49.480;8.512;2022-07-23T07:26:58;20.80;99.90
44117;DHT22;29781;49.480;8.512;2022-07-23T07:29:24;21.10;99.90
44117;DHT22;29781;49.480;8.512;2022-07-23T07:31:49;21.30;99.90
44117;DHT22;29781;49.480;8.512;2022-07-23T07:34:15;21.40;99.90
44117;DHT22;29781;49.480;8.512;2022-07-23T07:36:41;21.40;99.90
44117;DHT22;29781;49.480;8.512;2022-07-23T07:39:08;21.40;99.90
44117;DHT22;29781;49.480;8.512;2022-07-23T07:41:36;21.40;99.90
44117;DHT22;29781;49.480;8.512;2022-07-23T07:44:01;21.30;99.90
44117;DHT22;29781;49.480;8.512;2022-07-23T07:46:27;21.10;99.90
44117;DHT22;29781;49.480;8.512;2022-07-23T07:48:53;21.50;99.90
44117;DHT22;29781;49.480;8.512;2022-07-23T07:51:19;21.70;99.90
44117;DHT22;29781;49.480;8.512;2022-07-23T07:53:44;21.60;99.90
44117;DHT22;29781;49.480;8.512;2022-07-23T07:56:10;21.30;99.90
44117;DHT22;29781;49.480;8.512;2022-07-23T07:58:36;21.20;99.90
44117;DHT22;29781;49.480;8.512;2022-07-23T08:01:02;21.40;99.90
44117;DHT22;29781;49.480;8.512;2022-07-23T08:03:28;21.40;99.90
44117;DHT22;29781;49.480;8.512;2022-07-23T08:05:54;21.40;99.90
44117;DHT22;29781;49.480;8.512;2022-07-23T08:08:19;21.60;99.90
44117;DHT22;29781;49.480;8.512;2022-07-23T08:10:45;21.70;99.90
44117;DHT22;29781;49.480;8.512;2022-07-23T08:13:15;21.60;99.90
44117;DHT22;29781;49.480;8.512;2022-07-23T08:15:42;21.50;99.90
44117;DHT22;29781;49.480;8.512;2022-07-23T08:18:08;21.50;99.90
44117;DHT22;29781;49.480;8.512;2022-07-23T08:20:34;21.30;99.90
44117;DHT22;29781;49.480;8.512;2022-07-23T08:23:03;21.30;99.90
44117;DHT22;29781;49.480;8.512;2022-07-23T08:25:32;21.30;99.90
44117;DHT22;29781;49.480;8.512;2022-07-23T08:27:59;21.30;99.90
44117;DHT22;29781;49.480;8.512;2022-07-23T08:30:25;21.60;99.90
44117;DHT22;29781;49.480;8.512;2022-07-23T08:32:55;21.70;99.90
44117;DHT22;29781;49.480;8.512;2022-07-23T08:35:27;21.90;99.90
44117;DHT22;29781;49.480;8.512;2022-07-23T08:37:53;21.90;99.90
44117;DHT22;29781;49.480;8.512;2022-07-23T08:40:19;21.80;99.90
44117;DHT22;29781;49.480;8.512;2022-07-23T08:42:47;21.50;99.90
44117;DHT22;29781;49.480;8.512;2022-07-23T08:45:16;21.70;99.90
44117;DHT22;29781;49.480;8.512;2022-07-23T08:47:43;22.00;99.90
44117;DHT22;29781;49.480;8.512;2022-07-23T08:50:10;21.90;99.90
44117;DHT22;29781;49.480;8.512;2022-07-23T08:52:36;22.10;99.90
44117;DHT22;29781;49.480;8.512;2022-07-23T08:55:03;22.20;99.90
44117;DHT22;29781;49.480;8.512;2022-07-23T08:57:28;22.30;99.90
44117;DHT22;29781;49.480;8.512;2022-07-23T08:59:54;22.30;99.90
44117;DHT22;29781;49.480;8.512;2022-07-23T09:02:20;22.20;99.90
44117;DHT22;29781;49.480;8.512;2022-07-23T09:04:46;22.50;99.90
44117;DHT22;29781;49.480;8.512;2022-07-23T09:07:12;22.50;99.90
44117;DHT22;29781;49.480;8.512;2022-07-23T09:09:37;22.40;99.90
44117;DHT22;29781;49.480;8.512;2022-07-23T09:12:08;22.50;99.90
44117;DHT22;29781;49.480;8.512;2022-07-23T09:14:44;22.70;99.90
44117;DHT22;29781;49.480;8.512;2022-07-23T09:17:16;22.90;99.90
44117;DHT22;29781;49.480;8.512;2022-07-23T09:19:43;22.60;99.90
44117;DHT22;29781;49.480;8.512;2022-07-23T09:22:25;23.10;99.90
44117;DHT22;29781;49.480;8.512;2022-07-23T09:25:06;23.30;99.90
44117;DHT22;29781;49.480;8.512;2022-07-23T09:30:22;23.50;99.90
44117;DHT22;29781;49.480;8.512;2022-07-23T09:38:15;23.70;99.90
44117;DHT22;29781;49.480;8.512;2022-07-23T09:40:41;23.70;99.90
44117;DHT22;29781;49.480;8.512;2022-07-23T09:43:07;23.90;99.90
44117;DHT22;29781;49.480;8.512;2022-07-23T09:45:33;24.00;99.90
44117;DHT22;29781;49.480;8.512;2022-07-23T09:48:14;23.70;99.90
44117;DHT22;29781;49.480;8.512;2022-07-23T09:50:41;23.70;99.90
44117;DHT22;29781;49.480;8.512;2022-07-23T09:53:07;23.50;99.90
44117;DHT22;29781;49.480;8.512;2022-07-23T09:55:35;23.60;99.90
44117;DHT22;29781;49.480;8.512;2022-07-23T09:58:07;23.70;99.90
44117;DHT22;29781;49.480;8.512;2022-07-23T10:00:37;24.00;99.90
44117;DHT22;29781;49.480;8.512;2022-07-23T10:03:03;24.50;99.90
44117;DHT22;29781;49.480;8.512;2022-07-23T10:05:31;24.60;99.90
44117;DHT22;29781;49.480;8.512;2022-07-23T10:07:59;24.40;99.90
44117;DHT22;29781;49.480;8.512;2022-07-23T10:10:27;24.00;99.90
44117;DHT22;29781;49.480;8.512;2022-07-23T10:12:55;23.90;99.90
44117;DHT22;29781;49.480;8.512;2022-07-23T10:15:40;23.90;99.90
44117;DHT22;29781;49.480;8.512;2022-07-23T10:18:07;23.90;99.90
44117;DHT22;29781;49.480;8.512;2022-07-23T10:20:35;23.80;99.90
44117;DHT22;29781;49.480;8.512;2022-07-23T10:25:59;24.20;99.90
44117;DHT22;29781;49.480;8.512;2022-07-23T10:28:45;24.40;99.90
44117;DHT22;29781;49.480;8.512;2022-07-23T10:31:35;24.50;99.90
44117;DHT22;29781;49.480;8.512;2022-07-23T10:36:49;25.00;99.90
44117;DHT22;29781;49.480;8.512;2022-07-23T10:39:22;25.30;99.90
44117;DHT22;29781;49.480;8.512;2022-07-23T10:41:50;25.40;99.90
44117;DHT22;29781;49.480;8.512;2022-07-23T10:44:19;25.60;99.90
44117;DHT22;29781;49.480;8.512;2022-07-23T10:46:59;25.50;99.90
44117;DHT22;29781;49.480;8.512;2022-07-23T10:49:34;25.40;99.90
44117;DHT22;29781;49.480;8.512;2022-07-23T10:52:16;25.50;99.90
44117;DHT22;29781;49.480;8.512;2022-07-23T10:54:45;25.50;99.90
44117;DHT22;29781;49.480;8.512;2022-07-23T10:57:12;25.60;99.90
44117;DHT22;29781;49.480;8.512;2022-07-23T11:02:40;25.80;99.90
44117;DHT22;29781;49.480;8.512;2022-07-23T11:05:12;25.70;99.90
44117;DHT22;29781;49.480;8.512;2022-07-23T11:13:45;25.80;99.90
44117;DHT22;29781;49.480;8.512;2022-07-23T11:16:19;25.90;99.90
44117;DHT22;29781;49.480;8.512;2022-07-23T11:23:59;26.00;99.90
44117;DHT22;29781;49.480;8.512;2022-07-23T11:32:01;26.20;99.90
44117;DHT22;29781;49.480;8.512;2022-07-23T11:34:32;26.00;99.90
44117;DHT22;29781;49.480;8.512;2022-07-23T11:36:58;25.90;99.90
44117;DHT22;29781;49.480;8.512;2022-07-23T11:39:26;26.10;99.90
44117;DHT22;29781;49.480;8.512;2022-07-23T11:41:52;26.20;99.90
44117;DHT22;29781;49.480;8.512;2022-07-23T11:44:29;26.30;99.90
44117;DHT22;29781;49.480;8.512;2022-07-23T11:46:56;26.30;99.90
44117;DHT22;29781;49.480;8.512;2022-07-23T11:49:23;26.10;99.90
44117;DHT22;29781;49.480;8.512;2022-07-23T11:52:09;25.80;99.90
44117;DHT22;29781;49.480;8.512;2022-07-23T11:54:37;25.90;99.90
44117;DHT22;29781;49.480;8.512;2022-07-23T11:57:12;26.00;99.90
44117;DHT22;29781;49.480;8.512;2022-07-23T11:59:39;26.10;99.90
44117;DHT22;29781;49.480;8.512;2022-07-23T12:02:06;26.00;99.90
44117;DHT22;29781;49.480;8.512;2022-07-23T12:04:38;26.10;99.90
44117;DHT22;29781;49.480;8.512;2022-07-23T12:07:21;26.00;99.90
44117;DHT22;29781;49.480;8.512;2022-07-23T12:09:48;26.00;99.90
44117;DHT22;29781;49.480;8.512;2022-07-23T12:12:13;26.00;99.90
44117;DHT22;29781;49.480;8.512;2022-07-23T12:14:50;25.80;99.90
44117;DHT22;29781;49.480;8.512;2022-07-23T12:17:16;25.90;99.90
44117;DHT22;29781;49.480;8.512;2022-07-23T12:19:42;26.10;99.90
44117;DHT22;29781;49.480;8.512;2022-07-23T12:22:07;26.20;99.90
44117;DHT22;29781;49.480;8.512;2022-07-23T12:24:59;26.20;99.90
44117;DHT22;29781;49.480;8.512;2022-07-23T12:27:26;26.30;99.90
44117;DHT22;29781;49.480;8.512;2022-07-23T12:29:52;26.30;99.90
44117;DHT22;29781;49.480;8.512;2022-07-23T12:35:01;26.00;99.90
44117;DHT22;29781;49.480;8.512;2022-07-23T12:37:33;26.00;99.90
44117;DHT22;29781;49.480;8.512;2022-07-23T12:40:22;25.90;99.90
44117;DHT22;29781;49.480;8.512;2022-07-23T12:42:50;26.00;99.90
44117;DHT22;29781;49.480;8.512;2022-07-23T12:45:16;26.00;99.90
44117;DHT22;29781;49.480;8.512;2022-07-23T12:48:02;26.10;99.90
44117;DHT22;29781;49.480;8.512;2022-07-23T12:50:38;26.30;99.90
44117;DHT22;29781;49.480;8.512;2022-07-23T12:53:05;26.40;99.90
44117;DHT22;29781;49.480;8.512;2022-07-23T12:55:30;26.60;99.90
44117;DHT22;29781;49.480;8.512;2022-07-23T12:58:06;26.60;99.90
44117;DHT22;29781;49.480;8.512;2022-07-23T13:03:34;26.60;99.90
44117;DHT22;29781;49.480;8.512;2022-07-23T13:06:02;26.80;99.90
44117;DHT22;29781;49.480;8.512;2022-07-23T13:08:29;26.80;99.90
44117;DHT22;29781;49.480;8.512;2022-07-23T13:10:56;27.00;99.90
44117;DHT22;29781;49.480;8.512;2022-07-23T13:13:27;27.00;99.90
44117;DHT22;29781;49.480;8.512;2022-07-23T13:15:54;26.60;99.90
44117;DHT22;29781;49.480;8.512;2022-07-23T13:18:21;26.60;99.90
44117;DHT22;29781;49.480;8.512;2022-07-23T13:20:48;26.70;99.90
44117;DHT22;29781;49.480;8.512;2022-07-23T13:23:14;26.70;99.90
44117;DHT22;29781;49.480;8.512;2022-07-23T13:25:40;26.70;99.90
44117;DHT22;29781;49.480;8.512;2022-07-23T13:28:06;26.80;99.90
44117;DHT22;29781;49.480;8.512;2022-07-23T13:30:32;27.10;99.90
44117;DHT22;29781;49.480;8.512;2022-07-23T13:32:58;27.10;99.90
44117;DHT22;29781;49.480;8.512;2022-07-23T13:35:24;26.80;99.90
44117;DHT22;29781;49.480;8.512;2022-07-23T13:37:50;26.60;99.90
44117;DHT22;29781;49.480;8.512;2022-07-23T13:40:16;26.40;99.90
44117;DHT22;29781;49.480;8.512;2022-07-23T13:42:41;26.40;99.90
44117;DHT22;29781;49.480;8.512;2022-07-23T13:45:07;26.40;99.90
44117;DHT22;29781;49.480;8.512;2022-07-23T13:47:33;26.50;99.90
44117;DHT22;29781;49.480;8.512;2022-07-23T13:49:59;26.70;99.90
44117;DHT22;29781;49.480;8.512;2022-07-23T13:52:25;26.80;99.90
44117;DHT22;29781;49.480;8.512;2022-07-23T13:54:51;26.80;99.90
44117;DHT22;29781;49.480;8.512;2022-07-23T13:57:16;26.90;99.90
44117;DHT22;29781;49.480;8.512;2022-07-23T13:59:42;26.90;99.90
44117;DHT22;29781;49.480;8.512;2022-07-23T14:02:08;27.00;99.90
44117;DHT22;29781;49.480;8.512;2022-07-23T14:04:34;27.20;99.90
44117;DHT22;29781;49.480;8.512;2022-07-23T14:07:00;27.10;99.90
44117;DHT22;29781;49.480;8.512;2022-07-23T14:09:26;27.30;99.90
44117;DHT22;29781;49.480;8.512;2022-07-23T14:11:52;27.40;99.90
44117;DHT22;29781;49.480;8.512;2022-07-23T14:14:18;27.60;99.90
44117;DHT22;29781;49.480;8.512;2022-07-23T14:16:44;27.60;99.90
44117;DHT22;29781;49.480;8.512;2022-07-23T14:19:10;27.70;99.90
44117;DHT22;29781;49.480;8.512;2022-07-23T14:21:36;27.90;99.90
44117;DHT22;29781;49.480;8.512;2022-07-23T14:24:03;27.60;99.90
44117;DHT22;29781;49.480;8.512;2022-07-23T14:26:29;27.50;99.90
44117;DHT22;29781;49.480;8.512;2022-07-23T14:28:56;27.60;99.90
44117;DHT22;29781;49.480;8.512;2022-07-23T14:31:21;27.60;99.90
44117;DHT22;29781;49.480;8.512;2022-07-23T14:33:48;27.60;99.90
44117;DHT22;29781;49.480;8.512;2022-07-23T14:36:14;27.80;99.90
44117;DHT22;29781;49.480;8.512;2022-07-23T14:38:39;27.90;99.90
44117;DHT22;29781;49.480;8.512;2022-07-23T14:41:05;27.90;99.90
44117;DHT22;29781;49.480;8.512;2022-07-23T14:43:35;28.00;99.90
44117;DHT22;29781;49.480;8.512;2022-07-23T14:46:01;28.00;99.90
44117;DHT22;29781;49.480;8.512;2022-07-23T14:48:26;28.00;99.90
44117;DHT22;29781;49.480;8.512;2022-07-23T14:50:52;27.90;99.90
44117;DHT22;29781;49.480;8.512;2022-07-23T14:53:18;27.90;99.90
44117;DHT22;29781;49.480;8.512;2022-07-23T14:55:43;28.10;99.90
44117;DHT22;29781;49.480;8.512;2022-07-23T14:58:09;28.20;99.90
44117;DHT22;29781;49.480;8.512;2022-07-23T15:00:35;28.10;99.90
44117;DHT22;29781;49.480;8.512;2022-07-23T15:03:01;27.90;99.90
44117;DHT22;29781;49.480;8.512;2022-07-23T15:05:26;27.80;99.90
44117;DHT22;29781;49.480;8.512;2022-07-23T15:07:53;27.80;99.90
44117;DHT22;29781;49.480;8.512;2022-07-23T15:10:19;27.70;99.90
44117;DHT22;29781;49.480;8.512;2022-07-23T15:12:44;27.80;99.90
44117;DHT22;29781;49.480;8.512;2022-07-23T15:15:10;28.00;99.90
44117;DHT22;29781;49.480;8.512;2022-07-23T15:17:36;28.30;99.70
44117;DHT22;29781;49.480;8.512;2022-07-23T15:20:02;28.30;99.60
44117;DHT22;29781;49.480;8.512;2022-07-23T15:22:28;28.30;99.60
44117;DHT22;29781;49.480;8.512;2022-07-23T15:24:53;28.30;99.40
44117;DHT22;29781;49.480;8.512;2022-07-23T15:27:19;28.40;99.30
44117;DHT22;29781;49.480;8.512;2022-07-23T15:29:45;28.50;99.20
44117;DHT22;29781;49.480;8.512;2022-07-23T15:32:11;28.50;99.50
44117;DHT22;29781;49.480;8.512;2022-07-23T15:34:39;28.50;99.90
44117;DHT22;29781;49.480;8.512;2022-07-23T15:37:05;28.40;99.90
44117;DHT22;29781;49.480;8.512;2022-07-23T15:39:32;28.30;99.70
44117;DHT22;29781;49.480;8.512;2022-07-23T15:42:02;28.20;99.90
44117;DHT22;29781;49.480;8.512;2022-07-23T15:44:28;28.20;99.50
44117;DHT22;29781;49.480;8.512;2022-07-23T15:46:54;28.00;99.20
44117;DHT22;29781;49.480;8.512;2022-07-23T15:49:21;28.00;99.60
44117;DHT22;29781;49.480;8.512;2022-07-23T15:51:46;28.00;99.10
44117;DHT22;29781;49.480;8.512;2022-07-23T15:54:12;28.10;99.90
44117;DHT22;29781;49.480;8.512;2022-07-23T15:56:38;28.20;99.20
44117;DHT22;29781;49.480;8.512;2022-07-23T15:59:04;28.10;98.90
44117;DHT22;29781;49.480;8.512;2022-07-23T16:01:29;28.10;99.00
44117;DHT22;29781;49.480;8.512;2022-07-23T16:03:56;28.10;98.60
44117;DHT22;29781;49.480;8.512;2022-07-23T16:06:25;27.90;98.70
44117;DHT22;29781;49.480;8.512;2022-07-23T16:08:50;27.70;98.60